WetterOnline ( https://www.wetteronline.de )

Wetter aktuell Moers

Aktuelles Wetter: Essen (161m)

6-stündlich | Neueste Meldungen
Ortszeit Temperatur Wetter
Do, 30.06. 20:00 16.8° C Regen
Do, 30.06. 14:00 26.7° C fast wolkenlos
Do, 30.06. 8:00 21.6° C wolkenlos
Do, 30.06. 2:00 20.6° C wolkenlos
Mi, 29.06. 20:00 25.0° C leicht bewölkt
Mi, 29.06. 14:00 23.0° C bedeckt
Mi, 29.06. 8:00 18.5° C bedeckt
Mi, 29.06. 2:00 17.7° C wolkig
Ortszeit Temperatur Wetter
Fr, 01.07. 0:00 13.7° C bewölkt
Do, 30.06. 23:50 13.7° C bewölkt
Do, 30.06. 23:40 13.7° C bedeckt
Do, 30.06. 23:30 13.8° C bedeckt
Do, 30.06. 23:20 13.8° C bedeckt
Do, 30.06. 23:10 13.9° C bewölkt
Do, 30.06. 23:00 13.9° C Regen
Do, 30.06. 22:30 14.1° C bedeckt
Do, 30.06. 22:00 14.1° C Sprühregen
Do, 30.06. 21:30 14.4° C bewölkt
Do, 30.06. 21:00 15.1° C leichter Regen
Ortszeit Relative Feuchte Sichtweite
Do, 30.06. 20:00 97% 7 km
Do, 30.06. 14:00 43% 30 km
Do, 30.06. 8:00 76% 29 km
Do, 30.06. 2:00 71% 40 km
Mi, 29.06. 20:00 53% 55 km
Mi, 29.06. 14:00 58% 60 km
Mi, 29.06. 8:00 71% 40 km
Mi, 29.06. 2:00 63% 55 km
Ortszeit Relative Feuchte Sichtweite
Fr, 01.07. 0:00 97% 14 km
Do, 30.06. 23:50 97% -
Do, 30.06. 23:40 97% -
Do, 30.06. 23:30 96% 18 km
Do, 30.06. 23:20 96% -
Do, 30.06. 23:10 97% -
Do, 30.06. 23:00 96% 8 km
Do, 30.06. 22:30 94% 40 km
Do, 30.06. 22:00 96% 30 km
Do, 30.06. 21:30 96% 30 km
Do, 30.06. 21:00 96% 16 km
Ortszeit Niederschlagsmenge Niederschlagsart
Do, 30.06. 20:00 8 l/m2 in 12 Std. Regen, Niederschlag
Do, 30.06. 14:00 0.0 l/m2 in 6 Std. -
Do, 30.06. 8:00 0.0 l/m2 in 12 Std. -
Do, 30.06. 2:00 0.0 l/m2 in 6 Std. -
Mi, 29.06. 20:00 0.0 l/m2 in 12 Std. -
Mi, 29.06. 14:00 0.0 l/m2 in 6 Std. -
Mi, 29.06. 8:00 0.0 l/m2 in 12 Std. -
Mi, 29.06. 2:00 0.0 l/m2 in 6 Std. -
Ortszeit Niederschlagsmenge Niederschlagsart
Fr, 01.07. 0:00 0.2 l/m2 in 1 Std. Regen
Do, 30.06. 23:50 keine Meldung -
Do, 30.06. 23:40 keine Meldung -
Do, 30.06. 23:30 0.2 l/m2 in 1 Std. Schneeregen
Do, 30.06. 23:20 keine Meldung -
Do, 30.06. 23:10 keine Meldung -
Do, 30.06. 23:00 0.5 l/m2 in 1 Std. Regen
Do, 30.06. 22:30 0.1 l/m2 in 1 Std. Schneeregen
Do, 30.06. 22:00 0.1 l/m2 in 1 Std. Regen
Do, 30.06. 21:30 0.1 l/m2 in 1 Std. Schneeregen
Do, 30.06. 21:00 1.9 l/m2 in 1 Std. Regen
Ortszeit Stärke Spitze Richtung
km/h Bft. km/h Grad Sektor
Do, 30.06. 20:00 18 3 50 270° W
Do, 30.06. 14:00 11 2 22 290° W
Do, 30.06. 8:00 7 2 14 180° S
Do, 30.06. 2:00 7 2 14 80° O
Mi, 29.06. 20:00 7 2 18 100° O
Mi, 29.06. 14:00 7 2 14 120° SO
Mi, 29.06. 8:00 7 2 18 120° SO
Mi, 29.06. 2:00 9 2 19 90° O
Ortszeit Stärke Spitze Richtung
km/h Bft. km/h Grad Sektor
Fr, 01.07. 0:00 9 2 19 220° SW
Do, 30.06. 23:50 9 2 - 220° SW
Do, 30.06. 23:40 6 1 - 250° W
Do, 30.06. 23:30 9 2 19 240° SW
Do, 30.06. 23:20 9 2 - 240° SW
Do, 30.06. 23:10 9 2 - 250° W
Do, 30.06. 23:00 9 2 26 290° W
Do, 30.06. 22:30 9 2 26 280° W
Do, 30.06. 22:00 7 2 47 260° W
Do, 30.06. 21:30 14 3 47 250° W
Do, 30.06. 21:00 14 3 36 250° W
Ortszeit Untergrenze Bedeckung Gattung
total tief tief mittel hoch
Do, 30.06. 20:00 150 m 7/8 7/8 - - -
Do, 30.06. 14:00 8700 m 1/8 0/8 - - -
Do, 30.06. 8:00 - 0/8 0/8 - - -
Do, 30.06. 2:00 - 0/8 0/8 - - -
Mi, 29.06. 20:00 2400 m 2/8 2/8 - - -
Mi, 29.06. 14:00 2100 m 8/8 8/8 - - -
Mi, 29.06. 8:00 3600 m 8/8 8/8 - - -
Mi, 29.06. 2:00 7200 m 8/8 0/8 - - -
Ortszeit Bedeckungsgrad in Achtel und Wolkenuntergrenze
Fr, 01.07. 0:00 3(150m) 7(1320m) 8(3900m)
Do, 30.06. 23:50 3(150m) 7(1320m) 8(3900m)
Do, 30.06. 23:40 8
Do, 30.06. 23:30 1(120m) 7(330m) 8(1260m)
Do, 30.06. 23:20 1(120m) 7(330m) 8(1260m)
Do, 30.06. 23:10 7
Do, 30.06. 23:00 4(210m) 7(300m)
Do, 30.06. 22:30 4(240m) 6(330m) 8(1050m)
Do, 30.06. 22:00 6(210m) 7(330m)
Do, 30.06. 21:30 6(210m) 7(330m) 8(3000m)
Do, 30.06. 21:00 7(210m)
Ortszeit Luftdruck NN (hPa) Tendenz (hPa in 3 Std.)
Do, 30.06. 20:00 1010 + 0,7
Do, 30.06. 14:00 1011 - 0,8
Do, 30.06. 8:00 1011 - 0,4
Do, 30.06. 2:00 1012 + 0,1
Mi, 29.06. 20:00 1012 - 1,1
Mi, 29.06. 14:00 1014 - 0,5
Mi, 29.06. 8:00 1015 - 0,5
Mi, 29.06. 2:00 1017 - 1,1
Ortszeit Luftdruck NN (hPa) Tendenz (hPa in 3 Std.)
Fr, 01.07. 0:00 1015 + 2,7
Do, 30.06. 23:50 1015 keine Meldung
Do, 30.06. 23:40 1015 keine Meldung
Do, 30.06. 23:30 1015 + 2,9
Do, 30.06. 23:20 1015 keine Meldung
Do, 30.06. 23:10 1015 keine Meldung
Do, 30.06. 23:00 1014 + 3,9
Do, 30.06. 22:30 1014 + 3,5
Do, 30.06. 22:00 1013 + 5,3
Do, 30.06. 21:30 1013 + 5,0
Do, 30.06. 21:00 1013 + 4,2
Ortszeit Schneehöhe (cm)
Do, 30.06. 20:00 0
Do, 30.06. 14:00 0
Do, 30.06. 8:00 0
Do, 30.06. 2:00 0
Mi, 29.06. 20:00 0
Mi, 29.06. 14:00 0
Mi, 29.06. 8:00 0
Mi, 29.06. 2:00 0
Ortszeit Schneehöhe (cm)
Fr, 01.07. 0:00 0
Do, 30.06. 23:50 0
Do, 30.06. 23:40 0
Do, 30.06. 23:30 0
Do, 30.06. 23:20 0
Do, 30.06. 23:10 0
Do, 30.06. 23:00 0
Do, 30.06. 22:30 0
Do, 30.06. 22:00 0
Do, 30.06. 21:30 0
Do, 30.06. 21:00 0
Link zu dieser Seite / Seite empfehlen

Das Wetter in ...